»·PEaware :: SWA6100 KPHX-KSNA

SWA6100 :: KPHX-KSNA

FLIGHT INFORMATION

Flight Status: Arrived
Operator:
Southwest Airlines
More flights by this operator :: More flights under this callsign
Pilot: Nick B. (16803)
Aircraft: BOEING 737-700
(B737)
More flights by this aircraft type
Origin: KPHX Phoenix Sky Harbor Intl
United States
Destination: KSNA John Wayne-Orange Co
United States
More flights between these airports :: More routes between these airports
Route: +IZZZO6 HRRBR EMLLD DSNEE1
File this flight plan on PilotEdge
Remarks:
Altitude:
(Current/Filed)
32,000ft
Speed:
(Current/Filed)
450kts
Departed: 28-Sep-17 06:36 PM
Arrived: 28-Sep-17 07:54 PM
Distance/Time
Traveled:
293nm/1:18
Distance/Time
To Go:
Arrived

Flight Plot

Page will automatically refresh every two minutes.

Flight plan parsing failed; only flown route is shown


Map Options




Map Legend


Flown Route
Filed Route
Departure Airport
Arrival Airport
Navaid (VOR, NDB)
Fix

Horizontal Profiles

Position Reports

Time Latitude Longitude Heading Altitude Ground
Speed
28-Sep-17 18:18 33.433584 -111.997224 67 1142ft 0kts
28-Sep-17 18:19 33.433584 -111.997224 67 1142ft 0kts
28-Sep-17 18:20 33.433584 -111.997224 67 1142ft 0kts
28-Sep-17 18:21 33.433584 -111.997224 67 1142ft 0kts
28-Sep-17 18:22 33.433584 -111.997224 67 1142ft 0kts
28-Sep-17 18:23 33.433584 -111.997224 67 1142ft 0kts
28-Sep-17 18:24 33.433584 -111.997224 67 1142ft 0kts
28-Sep-17 18:25 33.433584 -111.997224 67 1142ft 0kts
28-Sep-17 18:26 33.433584 -111.997224 67 1142ft 0kts
28-Sep-17 18:27 33.433536 -111.997364 67 1142ft 2kts
28-Sep-17 18:28 33.433440 -111.997641 67 1142ft 2kts
28-Sep-17 18:29 33.433417 -111.997709 67 1142ft 0kts
28-Sep-17 18:30 33.433417 -111.997709 67 1142ft 0kts
28-Sep-17 18:31 33.433417 -111.997709 67 1142ft 0kts
28-Sep-17 18:32 33.433418 -111.997706 67 1142ft 0kts
28-Sep-17 18:33 33.433420 -111.997701 67 1142ft 0kts
28-Sep-17 18:34 33.433421 -111.997696 67 1142ft 0kts
28-Sep-17 18:35 33.433423 -111.997691 67 1142ft 0kts
28-Sep-17 18:36 33.433425 -111.997686 67 1142ft 0kts
28-Sep-17 18:37 33.433109 -111.997178 135 1142ft 13kts
28-Sep-17 18:38 33.431550 -111.993603 196 1142ft 1kts
28-Sep-17 18:39 33.431619 -111.993578 196 1142ft 0kts
28-Sep-17 18:40 33.431003 -111.997405 270 1142ft 74kts
28-Sep-17 18:41 33.431732 -112.051229 271 1427ft 246kts
28-Sep-17 18:42 33.434036 -112.123455 271 1064ft 249kts
28-Sep-17 18:47 33.431252 -111.993715 246 1142ft 9kts
28-Sep-17 19:08 33.436704 -112.179045 272 6710ft 280kts
28-Sep-17 19:09 33.440205 -112.275098 272 10160ft 297kts
28-Sep-17 19:10 33.443716 -112.383757 271 11899ft 364kts
28-Sep-17 19:11 33.447424 -112.508863 271 14495ft 384kts
28-Sep-17 19:12 33.450769 -112.639202 270 17014ft 399kts
28-Sep-17 19:13 33.452568 -112.774932 271 19268ft 413kts
28-Sep-17 19:14 33.473203 -112.912169 282 21268ft 426kts
28-Sep-17 19:15 33.499649 -113.052467 282 22994ft 438kts
28-Sep-17 19:16 33.526763 -113.196975 282 24505ft 448kts
28-Sep-17 19:17 33.553966 -113.344465 282 25812ft 458kts
28-Sep-17 19:18 33.581240 -113.494602 282 26985ft 465kts
28-Sep-17 19:19 33.609972 -113.648174 282 27903ft 477kts
28-Sep-17 19:20 33.638818 -113.804647 281 29036ft 479kts
28-Sep-17 19:21 33.683388 -113.951985 292 30962ft 461kts
28-Sep-17 19:22 33.736304 -114.089307 293 31890ft 445kts
28-Sep-17 19:23 33.767582 -114.228435 279 31912ft 425kts
28-Sep-17 19:24 33.784023 -114.370113 279 31912ft 428kts
28-Sep-17 19:25 33.800173 -114.511141 279 31919ft 426kts
28-Sep-17 19:26 33.816831 -114.652471 278 31932ft 426kts
28-Sep-17 19:27 33.832798 -114.794261 278 31941ft 428kts
28-Sep-17 19:28 33.848584 -114.935943 278 31953ft 427kts
28-Sep-17 19:29 33.864183 -115.077651 278 31945ft 429kts
28-Sep-17 19:30 33.879654 -115.219822 278 31967ft 428kts
28-Sep-17 19:31 33.895573 -115.362122 278 31972ft 430kts
28-Sep-17 19:32 33.910923 -115.505069 278 31973ft 432kts
28-Sep-17 19:33 33.926084 -115.648897 277 31992ft 432kts
28-Sep-17 19:34 33.936424 -115.792986 275 32008ft 433kts
28-Sep-17 19:35 33.946725 -115.936952 275 30497ft 425kts
28-Sep-17 19:36 33.956242 -116.076054 275 28330ft 411kts
28-Sep-17 19:37 33.962843 -116.211442 268 26174ft 401kts
28-Sep-17 19:38 33.947292 -116.343632 262 24115ft 393kts
28-Sep-17 19:39 33.931479 -116.472695 263 22080ft 388kts
28-Sep-17 19:40 33.915316 -116.601159 262 19878ft 394kts
28-Sep-17 19:41 33.898183 -116.732615 261 17380ft 388kts
28-Sep-17 19:42 33.884201 -116.856699 263 15238ft 358kts
28-Sep-17 19:43 33.871680 -116.971287 260 13200ft 337kts
28-Sep-17 19:44 33.859201 -117.084375 261 11933ft 343kts
28-Sep-17 19:45 33.847580 -117.189554 262 10803ft 297kts
28-Sep-17 19:46 33.836660 -117.285923 263 9773ft 287kts
28-Sep-17 19:47 33.836298 -117.380681 272 8767ft 276kts
28-Sep-17 19:48 33.837486 -117.467895 272 8030ft 256kts
28-Sep-17 19:49 33.840626 -117.551784 281 7361ft 240kts
28-Sep-17 19:50 33.852235 -117.627111 282 6407ft 211kts
28-Sep-17 19:51 33.862048 -117.691895 282 5392ft 190kts
28-Sep-17 19:52 33.856133 -117.750451 216 4174ft 195kts
28-Sep-17 19:53 33.812116 -117.782140 210 2902ft 172kts
28-Sep-17 19:54 33.773480 -117.806800 209 2070ft 143kts
28-Sep-17 19:55 33.738458 -117.829040 209 1307ft 141kts
28-Sep-17 19:56 33.704132 -117.850815 207 566ft 138kts
28-Sep-17 19:57 33.672056 -117.871131 207 64ft 77kts
28-Sep-17 19:58 33.673718 -117.866465 22 63ft 38kts
28-Sep-17 19:59 33.678297 -117.862987 125 63ft 0kts
28-Sep-17 20:00 33.678297 -117.862987 125 63ft 0kts
28-Sep-17 20:01 33.678297 -117.862987 125 63ft 0kts
28-Sep-17 20:02 33.678297 -117.862987 125 63ft 0kts
28-Sep-17 20:03 33.678297 -117.862987 125 63ft 0kts
28-Sep-17 20:04 33.678297 -117.862987 125 63ft 0kts
28-Sep-17 20:05 33.678297 -117.862987 125 63ft 0kts
28-Sep-17 20:06 33.678297 -117.862987 125 63ft 0kts
28-Sep-17 20:07 33.678297 -117.862987 125 63ft 0kts
28-Sep-17 20:08 33.678297 -117.862987 125 63ft 0kts
28-Sep-17 20:09 33.678297 -117.862987 125 63ft 0kts
28-Sep-17 20:10 33.678297 -117.862987 125 63ft 0kts
28-Sep-17 20:11 33.678297 -117.862987 125 63ft 0kts
28-Sep-17 20:12 33.678297 -117.862987 125 63ft 0kts

Navigation Log

Ident Type
Flight plan parsing failed, navigation log unavailable